Terminal Aerodrome Forecast
Issued by NWS

Home | Current Version | Previous Version | Graphics & Text | Print | Product List | Glossary On
Versions: 1 2 3 4 5 6 7 8 9 10 11 12 13 14 15
000
FTUS43 KICT 022333
TAFRSL
TAF
KRSL 022333Z 0300/0324 18018G26KT P6SM SCT120
     FM030100 18015KT P6SM BKN150
     FM030700 18013G19KT P6SM VCSH SCT070 OVC100
     FM031400 18015G22KT P6SM SCT090=

USA.gov is the U.S. government's official web portal to all federal, state and local government web resources and services.